Time;durP1;ratioP1;P1;durP2;ratioP2;P2;SDS_P1;SDS_P2;PMS_P1;PMS_P2;Temp;Humidity;BMP_temperature;BMP_pressure;BME280_temperature;BME280_humidity;BME280_pressure;Samples;Min_cycle;Max_cycle;Signal;HPM_P1;HPM_P2
2023/01/30 00:01:03;;;;;;;12.90;10.40;;;0.00;99.90;;;;;;5018501;28;20214;-62
2023/01/30 00:03:28;;;;;;;17.10;11.38;;;-0.70;99.90;;;;;;5017331;28;20344;-62
2023/01/30 00:05:54;;;;;;;16.30;11.20;;;-0.70;99.90;;;;;;5019676;28;20737;-62
2023/01/30 00:08:20;;;;;;;14.13;10.60;;;-0.10;99.90;;;;;;5001884;28;20738;-62
2023/01/30 00:10:46;;;;;;;14.45;10.65;;;-0.10;99.90;;;;;;5017704;28;20206;-64
2023/01/30 00:13:13;;;;;;;15.25;11.95;;;0.00;99.90;;;;;;5017923;28;20284;-63
2023/01/30 00:15:39;;;;;;;17.02;10.50;;;0.00;99.90;;;;;;5023336;28;20210;-64
2023/01/30 00:18:05;;;;;;;14.68;10.52;;;-0.10;99.90;;;;;;5025186;28;20216;-64
2023/01/30 00:20:31;;;;;;;18.30;11.00;;;-0.60;99.90;;;;;;5001748;28;20664;-63
2023/01/30 00:22:57;;;;;;;15.17;11.53;;;-0.10;99.90;;;;;;5019869;28;20235;-64
2023/01/30 00:25:24;;;;;;;16.02;11.48;;;0.00;99.90;;;;;;5018056;28;20987;-63
2023/01/30 00:27:49;;;;;;;14.27;10.20;;;0.00;99.90;;;;;;5003925;28;20182;-63
2023/01/30 00:30:15;;;;;;;15.70;10.33;;;-0.10;99.90;;;;;;5015064;28;20201;-63
2023/01/30 00:32:41;;;;;;;14.30;10.07;;;-0.30;99.90;;;;;;5022608;28;20297;-63
2023/01/30 00:35:07;;;;;;;13.27;9.87;;;-0.10;99.90;;;;;;4999897;28;20443;-63
2023/01/30 00:37:32;;;;;;;14.03;9.57;;;-0.10;99.90;;;;;;5015024;28;20182;-63
2023/01/30 00:39:58;;;;;;;13.83;10.83;;;0.00;99.90;;;;;;5019586;28;20448;-64
2023/01/30 00:47:55;;;;;;;12.18;8.45;;;0.00;99.90;;;;;;5016918;28;20272;-63
2023/01/30 00:50:20;;;;;;;13.83;10.20;;;-0.20;99.90;;;;;;5017423;28;20749;-63
2023/01/30 00:52:46;;;;;;;15.70;10.60;;;-0.80;99.90;;;;;;5013699;28;20608;-63
2023/01/30 00:55:12;;;;;;;12.10;9.10;;;-0.30;99.90;;;;;;5015443;28;21040;-63
2023/01/30 00:57:37;;;;;;;15.40;10.97;;;-0.30;99.90;;;;;;5019054;28;20655;-61
2023/01/30 01:00:04;;;;;;;15.53;10.47;;;0.00;99.90;;;;;;5020965;28;20452;-63
2023/01/30 01:02:30;;;;;;;13.63;10.52;;;-0.30;99.90;;;;;;5017121;28;20209;-62
2023/01/30 01:04:56;;;;;;;14.60;11.10;;;-0.20;99.90;;;;;;5003169;28;20668;-64
2023/01/30 01:07:21;;;;;;;15.70;10.53;;;-0.20;99.90;;;;;;5017280;28;20190;-62
2023/01/30 01:09:47;;;;;;;15.50;10.77;;;-0.10;99.90;;;;;;5017949;28;20237;-62
2023/01/30 01:12:12;;;;;;;14.20;10.07;;;-0.20;99.90;;;;;;5025263;28;20282;-62
2023/01/30 01:14:38;;;;;;;12.77;10.37;;;0.30;99.90;;;;;;5022304;28;20183;-62
2023/01/30 01:17:04;;;;;;;16.73;10.60;;;-0.40;99.90;;;;;;5022697;28;20206;-62
2023/01/30 01:19:29;;;;;;;15.27;11.87;;;-0.30;99.90;;;;;;5022783;28;20190;-62
2023/01/30 01:21:55;;;;;;;13.83;10.60;;;-0.40;99.90;;;;;;5027676;28;20298;-62
2023/01/30 01:24:20;;;;;;;17.50;10.50;;;-0.90;99.90;;;;;;5019020;28;20195;-62
2023/01/30 01:26:46;;;;;;;15.80;10.27;;;-0.20;99.90;;;;;;5024741;28;20373;-62
2023/01/30 01:29:13;;;;;;;13.90;10.00;;;-0.70;99.90;;;;;;5022994;28;20193;-63
2023/01/30 01:31:39;;;;;;;14.93;10.25;;;-0.20;99.90;;;;;;5026128;28;20191;-63
2023/01/30 01:34:04;;;;;;;16.27;11.00;;;-0.10;99.90;;;;;;5021538;28;20200;-63
2023/01/30 01:36:30;;;;;;;17.10;10.80;;;0.00;99.90;;;;;;5016254;28;20367;-62
2023/01/30 01:38:55;;;;;;;12.90;10.37;;;-0.20;99.90;;;;;;5025392;28;20675;-63
2023/01/30 01:41:21;;;;;;;15.43;10.33;;;-0.70;99.90;;;;;;5020776;28;20190;-62
2023/01/30 01:44:05;;;;;;;13.90;10.60;;;-0.80;99.90;;;;;;5020504;28;20692;-63
2023/01/30 01:46:54;;;;;;;13.10;9.60;;;-0.40;99.90;;;;;;5021764;28;20217;-62
2023/01/30 01:49:25;;;;;;;13.77;9.80;;;-0.10;99.90;;;;;;5022929;28;20198;-63
2023/01/30 01:52:06;;;;;;;16.45;11.13;;;-0.70;99.90;;;;;;5020112;28;20253;-62
2023/01/30 01:54:44;;;;;;;13.55;10.55;;;-0.30;99.90;;;;;;5025763;28;20190;-62
2023/01/30 01:57:22;;;;;;;12.85;9.95;;;-0.20;99.90;;;;;;5023397;28;20323;-63
2023/01/30 01:59:53;;;;;;;15.57;10.82;;;-0.80;99.90;;;;;;5005432;28;20190;-62
2023/01/30 02:02:19;;;;;;;13.45;9.85;;;-0.10;99.90;;;;;;5020070;28;20214;-62
2023/01/30 02:05:00;;;;;;;16.25;10.98;;;-0.60;99.90;;;;;;5019255;28;20178;-62
2023/01/30 02:07:33;;;;;;;16.40;11.18;;;-0.10;99.90;;;;;;5020835;28;20685;-63
2023/01/30 02:10:00;;;;;;;15.02;10.65;;;-0.10;99.90;;;;;;5023417;28;20182;-62
2023/01/30 02:12:25;;;;;;;15.10;9.80;;;-0.80;99.90;;;;;;5021844;28;20195;-62
2023/01/30 02:14:52;;;;;;;16.90;12.50;;;-0.20;99.90;;;;;;5017845;28;20205;-63
2023/01/30 02:17:19;;;;;;;13.18;9.32;;;0.90;99.90;;;;;;5008022;28;20495;-63
2023/01/30 02:19:57;;;;;;;13.25;10.20;;;0.00;99.90;;;;;;5001183;28;20197;-63
2023/01/30 02:22:44;;;;;;;13.20;9.63;;;-0.30;99.90;;;;;;5020198;28;20201;-63
2023/01/30 02:25:29;;;;;;;14.95;10.73;;;-0.40;99.90;;;;;;5025409;28;20228;-63
2023/01/30 02:28:02;;;;;;;12.73;9.65;;;-0.10;99.90;;;;;;5022421;28;20192;-63
2023/01/30 02:30:56;;;;;;;13.88;9.98;;;-0.20;99.90;;;;;;5024087;28;20202;-63
2023/01/30 02:33:47;;;;;;;18.92;10.60;;;-0.70;99.90;;;;;;5018340;28;20227;-63
2023/01/30 02:36:25;;;;;;;15.98;10.50;;;-0.30;99.90;;;;;;5003387;28;20232;-63
2023/01/30 02:39:25;;;;;;;14.23;9.90;;;-0.30;99.90;;;;;;5006890;28;20202;-63
2023/01/30 02:41:56;;;;;;;13.10;9.55;;;-0.10;99.90;;;;;;5018020;28;20210;-63
2023/01/30 02:44:48;;;;;;;12.68;10.23;;;-0.10;99.90;;;;;;5024863;28;20633;-62
2023/01/30 02:47:19;;;;;;;14.07;9.80;;;-0.10;99.90;;;;;;5018248;28;20218;-62
2023/01/30 02:49:50;;;;;;;15.70;9.93;;;0.10;99.90;;;;;;5018519;28;20182;-62
2023/01/30 02:52:16;;;;;;;14.70;9.88;;;0.00;99.90;;;;;;5023984;28;20248;-61
2023/01/30 02:54:41;;;;;;;10.60;9.07;;;-0.10;99.90;;;;;;5019232;28;20217;-62
2023/01/30 02:57:21;;;;;;;15.40;10.67;;;-0.60;99.90;;;;;;5023153;28;20201;-62
2023/01/30 02:59:58;;;;;;;14.30;10.07;;;-0.30;99.90;;;;;;5019864;28;20187;-62
2023/01/30 03:02:35;;;;;;;15.35;10.07;;;-0.10;99.90;;;;;;5020543;28;20210;-61
2023/01/30 03:05:07;;;;;;;12.73;9.63;;;-0.40;99.90;;;;;;5004119;28;20189;-61
2023/01/30 03:08:06;;;;;;;14.70;10.05;;;-0.90;99.90;;;;;;4999740;28;20210;-61
2023/01/30 03:10:59;;;;;;;16.13;10.90;;;-0.30;99.90;;;;;;5028481;28;20284;-63
2023/01/30 03:13:34;;;;;;;12.40;9.48;;;-0.20;99.90;;;;;;5005525;28;20195;-63
2023/01/30 03:16:25;;;;;;;14.75;11.25;;;-0.10;99.90;;;;;;5019454;28;20220;-62
2023/01/30 03:18:51;;;;;;;16.88;11.05;;;0.00;99.90;;;;;;5019422;28;20201;-63
2023/01/30 03:21:16;;;;;;;13.10;9.80;;;0.20;99.90;;;;;;5018848;28;20194;-62
2023/01/30 03:23:47;;;;;;;14.07;10.40;;;0.20;99.90;;;;;;5024427;28;20215;-61
2023/01/30 03:26:18;;;;;;;15.18;10.07;;;0.00;99.90;;;;;;5019144;28;20471;-63
2023/01/30 03:28:47;;;;;;;13.57;9.35;;;0.20;99.90;;;;;;5021939;28;20584;-62
2023/01/30 03:31:13;;;;;;;13.80;10.45;;;-0.10;99.90;;;;;;5019488;28;20186;-63
2023/01/30 03:33:38;;;;;;;13.90;9.00;;;0.30;99.90;;;;;;5018362;28;20557;-63
2023/01/30 03:36:04;;;;;;;11.50;9.23;;;0.30;99.90;;;;;;5017667;28;22162;-62
2023/01/30 03:38:30;;;;;;;12.47;8.57;;;0.50;99.90;;;;;;5017678;28;20187;-62
2023/01/30 03:40:55;;;;;;;12.40;9.20;;;0.40;99.90;;;;;;5016578;28;20434;-61
2023/01/30 03:43:21;;;;;;;14.80;9.27;;;0.50;99.90;;;;;;5014013;28;20613;-62
2023/01/30 03:45:47;;;;;;;13.10;9.40;;;0.80;99.90;;;;;;5000849;28;20202;-62
2023/01/30 03:48:12;;;;;;;12.73;9.27;;;0.70;99.90;;;;;;5015321;28;20183;-61
2023/01/30 03:50:38;;;;;;;10.20;8.10;;;0.90;99.90;;;;;;5015961;28;20471;-61
2023/01/30 03:53:03;;;;;;;11.03;8.07;;;0.40;99.90;;;;;;5001166;28;20225;-61
2023/01/30 03:55:29;;;;;;;14.63;8.70;;;0.10;99.90;;;;;;5019323;28;20217;-61
2023/01/30 03:57:56;;;;;;;12.40;8.90;;;0.80;99.90;;;;;;5023025;28;20260;-61
2023/01/30 04:00:22;;;;;;;10.98;8.20;;;1.00;99.90;;;;;;5019873;28;20183;-61
2023/01/30 04:02:47;;;;;;;11.63;9.03;;;0.60;99.90;;;;;;5017490;28;20206;-64
2023/01/30 04:05:13;;;;;;;11.47;7.93;;;1.00;99.90;;;;;;5022038;28;20449;-63
2023/01/30 04:07:38;;;;;;;9.43;8.07;;;1.00;99.90;;;;;;5016684;28;20655;-64
2023/01/30 04:10:05;;;;;;;11.47;8.60;;;0.90;99.90;;;;;;5017059;28;20187;-64
2023/01/30 04:12:30;;;;;;;10.57;8.10;;;1.10;99.90;;;;;;5016865;28;20218;-63
2023/01/30 04:14:56;;;;;;;11.97;8.70;;;1.10;99.90;;;;;;5017799;28;20229;-63
2023/01/30 04:17:21;;;;;;;11.33;8.07;;;1.00;99.90;;;;;;5020289;28;20179;-63
2023/01/30 04:19:47;;;;;;;12.10;8.77;;;1.30;99.90;;;;;;5015737;28;20185;-64
2023/01/30 04:22:12;;;;;;;10.60;8.50;;;1.00;99.90;;;;;;5018736;28;20726;-62
2023/01/30 04:24:38;;;;;;;11.90;8.87;;;1.00;99.90;;;;;;5017797;28;20663;-61
2023/01/30 04:27:04;;;;;;;9.50;7.70;;;0.70;99.90;;;;;;5016349;28;20206;-63
2023/01/30 04:29:29;;;;;;;11.77;8.53;;;1.40;99.90;;;;;;5017546;28;20222;-61
2023/01/30 04:31:55;;;;;;;12.03;8.70;;;1.10;99.90;;;;;;5022381;28;20226;-61
2023/01/30 04:34:20;;;;;;;10.03;8.00;;;1.30;99.90;;;;;;5016442;28;20187;-62
2023/01/30 04:36:46;;;;;;;9.80;7.90;;;1.40;99.90;;;;;;5017123;28;20205;-61
2023/01/30 04:39:11;;;;;;;12.07;8.07;;;1.20;99.90;;;;;;5016801;28;20198;-61
2023/01/30 04:41:37;;;;;;;8.80;7.67;;;1.30;99.90;;;;;;5012936;28;20679;-62
2023/01/30 04:44:02;;;;;;;12.63;7.97;;;1.50;99.90;;;;;;5014807;28;20183;-62
2023/01/30 04:46:29;;;;;;;9.93;7.30;;;1.50;99.90;;;;;;5021017;28;20222;-62
2023/01/30 04:48:54;;;;;;;8.73;7.07;;;1.60;99.90;;;;;;5021140;28;20192;-62
2023/01/30 04:51:20;;;;;;;8.40;6.77;;;1.40;99.90;;;;;;5022308;28;20191;-62
2023/01/30 04:53:45;;;;;;;8.43;6.97;;;0.90;99.90;;;;;;5001091;28;20194;-61
2023/01/30 04:56:11;;;;;;;9.23;7.40;;;1.70;99.90;;;;;;5020973;28;20206;-62
2023/01/30 04:58:36;;;;;;;9.30;7.23;;;1.20;99.90;;;;;;5023872;28;20189;-62
2023/01/30 05:01:22;;;;;;;8.93;6.93;;;1.80;99.90;;;;;;5019812;28;20232;-62
2023/01/30 05:03:49;;;;;;;10.38;7.75;;;1.60;99.90;;;;;;5020237;28;20213;-62
2023/01/30 05:06:15;;;;;;;10.68;8.05;;;1.90;99.90;;;;;;5001683;28;20710;-63
2023/01/30 05:08:41;;;;;;;8.60;6.13;;;1.70;99.90;;;;;;5023280;28;20217;-62
2023/01/30 05:11:06;;;;;;;9.23;7.10;;;1.70;99.90;;;;;;5023653;28;20191;-63
2023/01/30 05:13:32;;;;;;;10.13;7.00;;;1.60;99.90;;;;;;5021378;28;20226;-63
2023/01/30 05:15:57;;;;;;;9.87;7.43;;;1.00;99.90;;;;;;5020042;28;20226;-62
2023/01/30 05:18:23;;;;;;;9.07;7.43;;;1.10;99.90;;;;;;5022538;28;20278;-63
2023/01/30 05:20:49;;;;;;;9.50;7.63;;;1.90;99.90;;;;;;5023630;28;20191;-63
2023/01/30 05:23:15;;;;;;;8.18;6.78;;;1.30;99.90;;;;;;5018696;28;20221;-63
2023/01/30 05:25:40;;;;;;;9.40;7.30;;;1.90;99.90;;;;;;5019911;28;20221;-62
2023/01/30 05:28:06;;;;;;;9.50;6.93;;;1.70;99.90;;;;;;5016116;28;20228;-62
2023/01/30 05:30:32;;;;;;;10.73;7.17;;;1.30;99.90;;;;;;5021345;28;20720;-63
2023/01/30 05:32:57;;;;;;;10.87;7.20;;;1.60;99.90;;;;;;5018095;28;20190;-62
2023/01/30 05:35:23;;;;;;;7.60;6.60;;;1.90;99.90;;;;;;5020620;28;20766;-63
2023/01/30 05:37:50;;;;;;;7.63;6.60;;;1.60;99.90;;;;;;5018902;28;20586;-63
2023/01/30 05:40:15;;;;;;;8.68;7.18;;;1.30;99.90;;;;;;5016981;28;20194;-62
2023/01/30 05:42:41;;;;;;;8.90;7.20;;;1.70;99.90;;;;;;5023480;28;20198;-63
2023/01/30 05:45:07;;;;;;;11.00;7.83;;;1.80;99.90;;;;;;5018321;28;20656;-61
2023/01/30 05:47:33;;;;;;;7.68;6.80;;;1.60;99.90;;;;;;5019897;28;20273;-62
2023/01/30 05:49:59;;;;;;;9.53;6.10;;;1.70;99.90;;;;;;5024616;28;20400;-62
2023/01/30 05:52:24;;;;;;;9.20;7.30;;;1.80;99.90;;;;;;5018817;28;20213;-61
2023/01/30 05:54:50;;;;;;;8.93;7.20;;;2.20;99.90;;;;;;5022820;28;20660;-60
2023/01/30 05:57:15;;;;;;;8.00;6.07;;;1.70;99.90;;;;;;5027620;28;20221;-60
2023/01/30 05:59:41;;;;;;;7.50;6.60;;;1.10;99.90;;;;;;5022877;28;20182;-61
2023/01/30 06:02:07;;;;;;;9.07;7.20;;;1.70;99.90;;;;;;5015418;28;20205;-61
2023/01/30 06:04:32;;;;;;;8.20;6.47;;;1.20;99.90;;;;;;5020645;28;20189;-61
2023/01/30 06:06:58;;;;;;;10.20;7.10;;;1.20;99.90;;;;;;5001563;28;20314;-61
2023/01/30 06:09:23;;;;;;;9.90;6.23;;;1.80;99.90;;;;;;5026346;28;20183;-61
2023/01/30 06:11:51;;;;;;;9.63;7.40;;;2.20;99.90;;;;;;5017199;28;20186;-60
2023/01/30 06:14:16;;;;;;;10.27;7.95;;;1.90;99.90;;;;;;5020832;28;20729;-61
2023/01/30 06:16:42;;;;;;;8.47;6.90;;;1.80;99.90;;;;;;5019597;28;20207;-61
2023/01/30 06:19:09;;;;;;;8.97;6.70;;;1.60;99.90;;;;;;5029650;28;20209;-61
2023/01/30 06:21:34;;;;;;;7.70;6.22;;;2.00;99.90;;;;;;5018970;28;20197;-61
2023/01/30 06:24:01;;;;;;;9.30;7.00;;;1.70;99.90;;;;;;5018246;28;20179;-61
2023/01/30 06:26:26;;;;;;;8.95;7.30;;;2.30;99.90;;;;;;5016401;28;20656;-61
2023/01/30 06:28:52;;;;;;;11.97;6.67;;;1.70;99.90;;;;;;5017788;28;20190;-62
2023/01/30 06:31:17;;;;;;;8.37;7.17;;;1.50;99.90;;;;;;5022480;28;20190;-61
2023/01/30 06:33:43;;;;;;;9.63;7.57;;;1.70;99.90;;;;;;5024541;28;20236;-60
2023/01/30 06:36:09;;;;;;;7.87;6.70;;;1.70;99.90;;;;;;4996707;28;20234;-61
2023/01/30 06:38:34;;;;;;;8.93;6.97;;;1.70;99.90;;;;;;5017885;28;20194;-61
2023/01/30 06:41:00;;;;;;;9.00;6.80;;;2.20;99.90;;;;;;5014091;28;20191;-60
2023/01/30 06:43:26;;;;;;;10.47;7.63;;;2.60;99.90;;;;;;5024310;28;20211;-61
2023/01/30 06:45:51;;;;;;;8.73;7.10;;;1.30;99.90;;;;;;5014341;28;20215;-61
2023/01/30 06:48:17;;;;;;;9.87;7.37;;;1.70;99.90;;;;;;5017732;28;20183;-61
2023/01/30 06:50:45;;;;;;;8.37;6.10;;;1.50;99.90;;;;;;5009311;28;20620;-60
2023/01/30 06:53:11;;;;;;;8.05;6.13;;;1.80;99.90;;;;;;5021951;28;20248;-62
2023/01/30 06:55:37;;;;;;;10.90;7.47;;;2.00;99.90;;;;;;5017399;28;20202;-61
2023/01/30 06:58:10;;;;;;;8.98;7.00;;;2.00;99.90;;;;;;5016455;28;20191;-60
2023/01/30 07:00:38;;;;;;;10.27;7.38;;;2.10;99.90;;;;;;5023803;28;20618;-63
2023/01/30 07:03:04;;;;;;;9.05;7.55;;;2.10;99.90;;;;;;5020489;28;20211;-62
2023/01/30 07:05:30;;;;;;;8.00;7.03;;;2.20;99.90;;;;;;5018336;28;20763;-60
2023/01/30 07:07:55;;;;;;;8.33;7.30;;;2.00;99.90;;;;;;5016611;28;20786;-62
2023/01/30 07:10:21;;;;;;;8.83;7.07;;;2.30;99.90;;;;;;5021948;28;20696;-61
2023/01/30 07:12:47;;;;;;;8.77;7.10;;;2.00;99.90;;;;;;5021198;28;20190;-62
2023/01/30 07:15:13;;;;;;;8.83;6.60;;;2.30;99.90;;;;;;5017922;28;20236;-62
2023/01/30 07:17:40;;;;;;;8.10;6.53;;;1.90;99.90;;;;;;5017414;28;20208;-61
2023/01/30 07:20:07;;;;;;;12.23;7.72;;;2.30;99.90;;;;;;5017440;28;20273;-62
2023/01/30 07:22:33;;;;;;;8.40;6.95;;;2.00;99.90;;;;;;5018889;28;20195;-60
2023/01/30 07:24:58;;;;;;;9.43;7.63;;;2.20;99.90;;;;;;5014488;28;20555;-61
2023/01/30 07:27:24;;;;;;;7.90;6.10;;;2.20;99.90;;;;;;4998404;28;20523;-60
2023/01/30 07:29:49;;;;;;;8.57;6.50;;;2.60;99.90;;;;;;5022709;28;20241;-60
2023/01/30 07:32:18;;;;;;;9.20;6.93;;;2.20;99.90;;;;;;5019844;28;20198;-61
2023/01/30 07:34:44;;;;;;;9.85;7.50;;;2.40;99.90;;;;;;5023919;28;20186;-60
2023/01/30 07:37:10;;;;;;;9.98;7.70;;;2.30;99.90;;;;;;5022123;28;20222;-60
2023/01/30 07:39:36;;;;;;;10.03;7.30;;;1.80;99.90;;;;;;5015144;28;20242;-61
2023/01/30 07:42:01;;;;;;;10.10;6.80;;;2.60;99.90;;;;;;5018842;28;20267;-61
2023/01/30 07:44:27;;;;;;;8.60;6.72;;;2.40;99.90;;;;;;5020049;28;20596;-60
2023/01/30 07:46:53;;;;;;;10.37;7.07;;;2.20;99.90;;;;;;5019845;28;20350;-61
2023/01/30 07:49:18;;;;;;;8.40;6.50;;;2.60;99.90;;;;;;5015275;28;20195;-61
2023/01/30 07:51:45;;;;;;;9.30;7.33;;;2.70;99.90;;;;;;5001666;28;20190;-60
2023/01/30 07:54:10;;;;;;;9.07;6.20;;;2.40;99.90;;;;;;5017862;28;20191;-63
2023/01/30 07:56:36;;;;;;;8.70;6.27;;;2.80;99.90;;;;;;5013322;28;20675;-60
2023/01/30 07:59:04;;;;;;;8.17;6.53;;;2.90;99.90;;;;;;5016736;28;20186;-60
2023/01/30 08:01:30;;;;;;;7.90;6.35;;;3.10;99.90;;;;;;5015658;28;20187;-62
2023/01/30 08:03:55;;;;;;;7.10;5.50;;;3.00;99.90;;;;;;5015612;28;20571;-62
2023/01/30 08:06:21;;;;;;;7.43;5.97;;;2.40;99.90;;;;;;5020587;28;20466;-63
2023/01/30 08:08:47;;;;;;;7.25;5.90;;;3.10;99.90;;;;;;4999689;28;20190;-61
2023/01/30 08:11:13;;;;;;;10.20;7.10;;;3.10;99.90;;;;;;5017416;28;20237;-61
2023/01/30 08:13:38;;;;;;;8.00;6.17;;;3.00;99.90;;;;;;5019600;28;20493;-60
2023/01/30 08:16:05;;;;;;;15.30;5.73;;;3.20;99.90;;;;;;5020600;28;20328;-60
2023/01/30 08:18:32;;;;;;;9.05;6.15;;;3.20;99.90;;;;;;5016755;28;20225;-61
2023/01/30 08:20:59;;;;;;;9.75;6.18;;;3.10;99.90;;;;;;5019921;28;20219;-59
2023/01/30 08:23:26;;;;;;;6.45;5.47;;;2.60;99.90;;;;;;5019645;28;20211;-61
2023/01/30 08:25:56;;;;;;;8.85;6.63;;;3.30;99.90;;;;;;5013357;28;20211;-59
2023/01/30 08:28:22;;;;;;;7.03;5.55;;;3.50;99.90;;;;;;5013434;28;20178;-61
2023/01/30 08:30:48;;;;;;;8.27;5.88;;;3.00;99.90;;;;;;5016183;28;20201;-61
2023/01/30 08:33:14;;;;;;;7.80;5.80;;;3.30;99.90;;;;;;5014409;28;20258;-60
2023/01/30 08:35:40;;;;;;;9.30;6.30;;;2.90;99.90;;;;;;5013361;28;20207;-60
2023/01/30 08:38:07;;;;;;;8.27;5.65;;;3.30;99.90;;;;;;5018717;28;20663;-61
2023/01/30 08:40:34;;;;;;;6.00;5.40;;;3.20;99.90;;;;;;5014265;28;20187;-61
2023/01/30 08:42:59;;;;;;;6.85;5.57;;;3.20;99.90;;;;;;5015696;28;20242;-61
2023/01/30 08:45:25;;;;;;;6.77;5.83;;;3.10;99.90;;;;;;5014583;28;20254;-61
2023/01/30 08:47:51;;;;;;;8.20;5.90;;;3.40;99.90;;;;;;5019113;28;20189;-61
2023/01/30 08:50:16;;;;;;;6.57;5.40;;;3.30;99.90;;;;;;5019269;28;20236;-60
2023/01/30 08:52:42;;;;;;;6.73;5.53;;;3.40;99.90;;;;;;5018221;28;20599;-61
2023/01/30 08:55:08;;;;;;;6.10;5.00;;;3.40;99.90;;;;;;5024352;28;20195;-61
2023/01/30 08:57:34;;;;;;;6.75;6.05;;;3.60;99.90;;;;;;5014645;28;20596;-61
2023/01/30 09:00:00;;;;;;;6.70;5.87;;;3.60;99.90;;;;;;5014534;28;20248;-61
2023/01/30 09:02:26;;;;;;;9.45;6.18;;;3.80;99.90;;;;;;5016522;28;20466;-62
2023/01/30 09:04:51;;;;;;;7.63;5.60;;;3.60;99.90;;;;;;5017277;28;20764;-61
2023/01/30 09:07:17;;;;;;;8.13;5.57;;;3.30;99.90;;;;;;5017678;28;20473;-60
2023/01/30 09:09:42;;;;;;;8.07;5.83;;;3.90;99.90;;;;;;5016007;28;20636;-61
2023/01/30 09:12:08;;;;;;;6.90;5.67;;;3.80;99.90;;;;;;5019394;28;20600;-61
2023/01/30 09:14:34;;;;;;;6.33;5.33;;;3.90;99.90;;;;;;5013376;28;20196;-61
2023/01/30 09:16:59;;;;;;;6.83;5.10;;;3.80;99.90;;;;;;5018453;28;20316;-60
2023/01/30 09:19:27;;;;;;;7.17;5.83;;;3.90;99.90;;;;;;5017060;28;20202;-60
2023/01/30 09:21:53;;;;;;;5.95;5.30;;;4.30;99.90;;;;;;5012421;28;20202;-60
2023/01/30 09:24:20;;;;;;;7.93;5.90;;;4.60;99.90;;;;;;5002817;28;20656;-60
2023/01/30 09:26:47;;;;;;;7.93;5.05;;;4.90;99.90;;;;;;5016535;28;20207;-61
2023/01/30 09:29:13;;;;;;;5.47;4.82;;;4.80;99.90;;;;;;5015454;28;20695;-61
2023/01/30 09:31:39;;;;;;;8.43;5.95;;;4.90;99.90;;;;;;5022218;28;20192;-61
2023/01/30 09:34:05;;;;;;;6.97;5.47;;;4.60;99.90;;;;;;5021233;28;20188;-60
2023/01/30 09:36:31;;;;;;;23.80;7.20;;;4.10;99.90;;;;;;5020159;28;20689;-61
2023/01/30 09:38:59;;;;;;;6.40;5.40;;;4.10;99.90;;;;;;5020115;28;20185;-61
2023/01/30 09:41:49;;;;;;;6.10;4.63;;;4.70;99.90;;;;;;5016950;28;20189;-61
2023/01/30 09:44:33;;;;;;;16.77;4.90;;;4.50;99.90;;;;;;5019657;28;20207;-62
2023/01/30 09:47:27;;;;;;;6.35;4.63;;;4.80;99.90;;;;;;5016200;28;20547;-60
2023/01/30 09:50:12;;;;;;;7.47;4.68;;;4.60;99.90;;;;;;5003067;28;20262;-60
2023/01/30 09:53:11;;;;;;;7.50;4.90;;;4.70;99.90;;;;;;5019065;28;20193;-60
2023/01/30 09:55:40;;;;;;;8.93;4.28;;;4.90;99.90;;;;;;5009503;28;20207;-61
2023/01/30 09:58:16;;;;;;;6.45;5.70;;;4.90;99.90;;;;;;5021382;28;20202;-60
2023/01/30 10:00:42;;;;;;;5.85;4.35;;;6.30;99.90;;;;;;5007081;28;20275;-62
2023/01/30 10:03:22;;;;;;;6.33;3.93;;;4.90;99.90;;;;;;5017427;28;20634;-60
2023/01/30 10:05:53;;;;;;;4.78;3.60;;;5.20;99.90;;;;;;5019034;28;20974;-61
2023/01/30 10:08:40;;;;;;;4.75;4.07;;;5.10;99.90;;;;;;5020655;28;20187;-61
2023/01/30 10:11:26;;;;;;;7.97;4.10;;;5.00;99.90;;;;;;5022662;28;20182;-60
2023/01/30 10:14:11;;;;;;;5.05;4.18;;;5.10;99.90;;;;;;5006414;28;20565;-60
2023/01/30 10:17:07;;;;;;;4.82;4.05;;;5.20;99.90;;;;;;5013275;28;20341;-62
2023/01/30 10:20:10;;;;;;;4.20;3.50;;;5.50;99.90;;;;;;4999717;28;20185;-60
2023/01/30 10:22:51;;;;;;;3.88;3.35;;;5.30;99.90;;;;;;5006673;28;20212;-61
2023/01/30 10:25:28;;;;;;;5.85;4.00;;;5.40;99.90;;;;;;5017152;28;20217;-61
2023/01/30 10:28:05;;;;;;;3.10;2.80;;;4.80;99.90;;;;;;5005048;28;20185;-59
2023/01/30 10:30:32;;;;;;;7.45;3.33;;;5.70;99.90;;;;;;5015295;28;20651;-63
2023/01/30 10:33:06;;;;;;;3.40;2.50;;;5.80;99.90;;;;;;5022071;28;20186;-61
2023/01/30 10:35:38;;;;;;;5.20;3.08;;;6.00;99.90;;;;;;5014476;28;20234;-60
2023/01/30 10:38:32;;;;;;;3.75;3.17;;;6.00;99.90;;;;;;5019651;28;20632;-60
2023/01/30 10:41:20;;;;;;;2.38;2.17;;;5.80;99.90;;;;;;5022694;28;20291;-62
2023/01/30 10:44:13;;;;;;;2.25;2.00;;;5.60;99.90;;;;;;5018301;28;20618;-61
2023/01/30 10:47:00;;;;;;;3.35;2.70;;;6.20;99.90;;;;;;5018351;28;20207;-61
2023/01/30 10:49:51;;;;;;;3.85;2.45;;;6.20;99.90;;;;;;5018401;28;20182;-62
2023/01/30 10:52:35;;;;;;;2.95;2.20;;;6.00;99.90;;;;;;5018733;28;20254;-60
2023/01/30 10:55:23;;;;;;;3.67;2.40;;;5.80;99.90;;;;;;5016268;28;20280;-59
2023/01/30 10:58:00;;;;;;;6.13;3.28;;;6.00;99.90;;;;;;5018147;28;20204;-63
2023/01/30 11:00:36;;;;;;;4.80;2.10;;;6.10;99.90;;;;;;5015515;28;20183;-60
2023/01/30 11:03:42;;;;;;;3.72;2.35;;;6.10;99.90;;;;;;5018820;28;20221;-61
2023/01/30 11:06:18;;;;;;;3.38;2.10;;;5.90;99.90;;;;;;5004753;28;20213;-60
2023/01/30 11:08:44;;;;;;;3.25;2.08;;;6.20;99.90;;;;;;5019501;28;20186;-60
2023/01/30 11:11:31;;;;;;;2.58;2.20;;;6.30;99.90;;;;;;5020923;28;20197;-59
2023/01/30 11:14:01;;;;;;;3.33;2.08;;;6.20;99.90;;;;;;5020015;28;20190;-61
2023/01/30 11:16:27;;;;;;;5.13;2.65;;;6.10;99.90;;;;;;5018204;28;20210;-61
2023/01/30 11:18:57;;;;;;;2.63;2.43;;;6.00;99.90;;;;;;5014932;28;20643;-60
2023/01/30 11:21:26;;;;;;;2.42;2.03;;;6.00;99.90;;;;;;4999542;28;20525;-59
2023/01/30 11:23:53;;;;;;;2.90;2.60;;;6.20;99.90;;;;;;5018511;28;20218;-60
2023/01/30 11:26:42;;;;;;;2.92;2.65;;;6.00;99.90;;;;;;5015968;28;20206;-61
2023/01/30 11:29:28;;;;;;;3.15;2.53;;;5.90;99.90;;;;;;4999943;28;20219;-61
2023/01/30 11:31:54;;;;;;;5.97;3.85;;;5.90;99.90;;;;;;5018130;28;20185;-60
2023/01/30 11:34:22;;;;;;;3.40;2.90;;;6.00;99.90;;;;;;5014468;28;20183;-62
2023/01/30 11:36:48;;;;;;;3.25;2.80;;;6.00;99.90;;;;;;5018019;28;20208;-60
2023/01/30 11:39:16;;;;;;;3.63;3.27;;;6.40;99.90;;;;;;5018974;28;20617;-60
2023/01/30 11:42:03;;;;;;;3.05;2.67;;;5.80;99.90;;;;;;5016574;28;20520;-62
2023/01/30 11:44:34;;;;;;;3.40;3.10;;;5.90;99.90;;;;;;5014424;28;20725;-61
2023/01/30 11:47:22;;;;;;;3.25;2.83;;;6.10;99.90;;;;;;5011810;28;20254;-59
2023/01/30 11:49:51;;;;;;;3.40;3.08;;;5.30;99.90;;;;;;5016252;28;20187;-60
2023/01/30 11:52:25;;;;;;;3.85;3.25;;;5.70;99.90;;;;;;4996112;28;20205;-60
2023/01/30 11:54:53;;;;;;;3.30;2.90;;;5.00;99.90;;;;;;5013064;28;20197;-60
2023/01/30 11:57:19;;;;;;;3.33;3.03;;;5.30;99.90;;;;;;5017147;28;20683;-59
2023/01/30 11:59:57;;;;;;;4.05;3.10;;;5.20;99.90;;;;;;5017253;28;20220;-60
2023/01/30 12:02:36;;;;;;;4.13;2.95;;;5.10;99.90;;;;;;5020849;28;20202;-61
2023/01/30 12:05:05;;;;;;;5.00;4.45;;;5.20;99.90;;;;;;5019726;28;20193;-62
2023/01/30 12:07:34;;;;;;;6.03;4.60;;;4.90;99.90;;;;;;5005410;28;20585;-59
2023/01/30 12:10:15;;;;;;;5.90;3.80;;;5.10;99.90;;;;;;5018576;28;20271;-59
2023/01/30 12:12:49;;;;;;;4.72;4.22;;;4.90;99.90;;;;;;5021328;28;20537;-60
2023/01/30 12:15:26;;;;;;;5.68;4.20;;;5.00;99.90;;;;;;5015885;28;20188;-62
2023/01/30 12:18:04;;;;;;;4.32;3.72;;;5.00;99.90;;;;;;5017663;28;20191;-61
2023/01/30 12:20:53;;;;;;;4.75;3.95;;;4.90;99.90;;;;;;5013482;28;20218;-61
2023/01/30 12:23:29;;;;;;;3.67;2.90;;;4.80;99.90;;;;;;5017811;28;20317;-62
2023/01/30 12:26:06;;;;;;;4.30;3.40;;;4.70;99.90;;;;;;5017609;28;20202;-61
2023/01/30 12:28:57;;;;;;;4.03;3.47;;;5.60;99.90;;;;;;5012185;28;20185;-60
2023/01/30 12:31:34;;;;;;;3.67;3.17;;;4.90;99.90;;;;;;5016456;28;20185;-61
2023/01/30 12:34:01;;;;;;;5.30;3.17;;;4.70;99.90;;;;;;5021680;28;20197;-61
2023/01/30 12:36:36;;;;;;;4.28;2.83;;;5.00;99.90;;;;;;5015860;28;20210;-61
2023/01/30 12:39:47;;;;;;;3.67;3.38;;;5.00;99.90;;;;;;5013583;28;20600;-61
2023/01/30 12:42:32;;;;;;;3.80;3.40;;;5.10;99.90;;;;;;4998213;28;20243;-61
2023/01/30 12:45:21;;;;;;;3.35;3.05;;;5.30;99.90;;;;;;4999050;28;20195;-61
2023/01/30 12:47:59;;;;;;;4.97;4.00;;;5.10;99.90;;;;;;5012150;28;20217;-62
2023/01/30 12:50:56;;;;;;;8.68;5.30;;;5.20;99.90;;;;;;5019329;28;20664;-61
2023/01/30 12:53:52;;;;;;;3.90;3.10;;;5.00;99.90;;;;;;5019004;28;20813;-60
2023/01/30 12:56:48;;;;;;;3.95;3.55;;;5.00;99.90;;;;;;5014350;28;20291;-60
2023/01/30 12:59:20;;;;;;;4.68;3.40;;;5.00;99.90;;;;;;5020292;28;20855;-59
2023/01/30 13:01:54;;;;;;;15.70;8.25;;;5.00;99.90;;;;;;5023708;28;20271;-60
2023/01/30 13:05:02;;;;;;;6.70;4.72;;;4.80;99.90;;;;;;5015335;28;20196;-60
2023/01/30 13:07:33;;;;;;;5.45;4.07;;;4.80;99.90;;;;;;5024300;28;20191;-60
2023/01/30 13:10:22;;;;;;;5.55;4.47;;;5.10;99.90;;;;;;5022150;28;20235;-60
2023/01/30 13:13:08;;;;;;;6.00;4.13;;;4.70;99.90;;;;;;5022924;28;20215;-61